createdAt,value
2023-04-15T00:00:30.988Z,91.14
2023-04-15T00:03:02.361Z,91.46
2023-04-15T00:05:43.821Z,91.26
2023-04-15T00:08:13.845Z,90.93
2023-04-15T00:10:48.755Z,90.79
2023-04-15T00:13:24.969Z,88.94
2023-04-15T00:15:57.204Z,90.36
2023-04-15T00:18:31.918Z,88.65
2023-04-15T00:21:03.746Z,90.66
2023-04-15T00:23:37.499Z,88.81
2023-04-15T00:26:14.682Z,89.73
2023-04-15T00:28:50.959Z,88.45
2023-04-15T00:31:18.951Z,89.47
2023-04-15T00:33:46.849Z,91.30
2023-04-15T00:36:17.034Z,91.45
2023-04-15T00:38:46.271Z,92.51
2023-04-15T00:41:19.339Z,91.82
2023-04-15T00:43:52.631Z,91.41
2023-04-15T00:46:25.692Z,91.63
2023-04-15T00:49:05.854Z,90.95
2023-04-15T00:51:38.863Z,91.04
2023-04-15T00:54:08.978Z,89.62
2023-04-15T00:56:43.864Z,91.83
2023-04-15T00:59:16.828Z,91.37
2023-04-15T01:01:49.214Z,91.16
2023-04-15T01:04:25.367Z,91.27
2023-04-15T01:07:01.164Z,92.35
2023-04-15T01:12:19.679Z,93.20
2023-04-15T01:14:56.139Z,91.58
2023-04-15T01:17:25.341Z,89.02
2023-04-15T01:19:53.373Z,91.91
2023-04-15T01:22:22.092Z,90.44
2023-04-15T01:25:01.110Z,90.41
2023-04-15T01:27:29.023Z,91.55
2023-04-15T01:30:02.414Z,91.75
2023-04-15T01:32:36.730Z,91.13
2023-04-15T01:35:09.208Z,90.42
2023-04-15T01:37:41.105Z,90.60
2023-04-15T01:40:15.699Z,91.28
2023-04-15T01:42:49.532Z,92.08
2023-04-15T01:45:23.359Z,89.97
2023-04-15T01:47:52.480Z,91.13
2023-04-15T01:50:21.258Z,90.21
2023-04-15T01:52:50.327Z,91.61
2023-04-15T01:55:25.717Z,91.79
2023-04-15T01:58:15.187Z,92.14
2023-04-15T02:00:48.537Z,94.21
2023-04-15T02:03:16.165Z,92.67
2023-04-15T02:05:45.238Z,93.45
2023-04-15T02:08:15.737Z,91.89
2023-04-15T02:10:45.183Z,95.14
2023-04-15T02:13:25.948Z,91.99
2023-04-15T02:15:57.671Z,93.50
2023-04-15T02:18:25.344Z,93.70
2023-04-15T02:20:58.908Z,92.88
2023-04-15T02:23:29.064Z,92.86
2023-04-15T02:25:59.383Z,90.79
2023-04-15T02:28:31.012Z,92.68
2023-04-15T02:31:07.920Z,94.25
2023-04-15T02:33:36.051Z,93.97
2023-04-15T02:36:04.062Z,93.04
2023-04-15T02:38:32.341Z,93.33
2023-04-15T02:41:22.383Z,96.43
2023-04-15T02:43:59.758Z,94.76
2023-04-15T02:46:36.390Z,93.61
2023-04-15T02:49:11.633Z,94.76
2023-04-15T02:51:46.238Z,95.75
2023-04-15T02:54:43.228Z,93.28
2023-04-15T02:57:14.769Z,95.18
2023-04-15T02:59:50.829Z,96.40
2023-04-15T03:02:20.988Z,93.71
2023-04-15T03:07:45.988Z,97.74
2023-04-15T03:10:19.442Z,97.23
2023-04-15T03:12:55.708Z,98.58
2023-04-15T03:15:31.375Z,98.53
2023-04-15T03:18:07.231Z,96.43
2023-04-15T03:20:42.827Z,97.56
2023-04-15T03:23:18.587Z,96.83
2023-04-15T03:25:49.438Z,97.08
2023-04-15T03:31:06.354Z,95.55
2023-04-15T03:33:41.880Z,94.92
2023-04-15T03:36:13.313Z,93.23
2023-04-15T03:38:46.548Z,96.84
2023-04-15T03:41:16.397Z,95.90
2023-04-15T03:43:48.690Z,94.01
2023-04-15T03:46:25.185Z,94.07
2023-04-15T03:48:56.268Z,93.69
2023-04-15T03:51:25.326Z,92.84
2023-04-15T03:53:58.186Z,92.81
2023-04-15T03:56:27.667Z,93.58
2023-04-15T04:01:41.834Z,95.21
2023-04-15T04:04:10.763Z,94.84
2023-04-15T04:06:44.748Z,95.36
2023-04-15T04:09:24.943Z,96.41
2023-04-15T04:11:52.466Z,94.92
2023-04-15T04:14:31.169Z,92.94
2023-04-15T04:17:01.304Z,95.71
2023-04-15T04:19:31.762Z,96.53
2023-04-15T04:22:05.045Z,96.49
2023-04-15T04:24:33.616Z,95.60
2023-04-15T04:27:09.181Z,93.76
2023-04-15T04:32:29.126Z,92.76
2023-04-15T04:34:59.858Z,93.59
2023-04-15T04:37:27.563Z,95.33
2023-04-15T04:39:57.706Z,94.52
2023-04-15T04:42:26.262Z,94.47
2023-04-15T04:44:53.584Z,93.08
2023-04-15T04:47:22.517Z,94.39
2023-04-15T04:49:49.296Z,94.87
2023-04-15T04:52:18.568Z,94.19
2023-04-15T04:54:46.071Z,95.44
2023-04-15T04:57:14.098Z,94.78
2023-04-15T04:59:41.253Z,94.74
2023-04-15T05:02:08.793Z,94.45
2023-04-15T05:04:37.051Z,95.02
2023-04-15T05:07:03.694Z,95.75
2023-04-15T05:09:32.520Z,94.51
2023-04-15T05:11:59.449Z,94.58
2023-04-15T05:14:26.100Z,95.14
2023-04-15T05:16:52.559Z,95.21
2023-04-15T05:19:19.104Z,93.54
2023-04-15T05:21:47.338Z,92.57
2023-04-15T05:24:13.953Z,94.25
2023-04-15T05:26:40.911Z,94.50
2023-04-15T05:29:08.435Z,94.89
2023-04-15T05:31:35.067Z,93.25
2023-04-15T05:34:01.718Z,92.35
2023-04-15T05:36:28.803Z,93.51
2023-04-15T05:38:55.543Z,94.79
2023-04-15T05:41:22.230Z,96.69
2023-04-15T05:43:49.094Z,94.64
2023-04-15T05:46:15.963Z,94.62
2023-04-15T05:48:42.480Z,95.92
2023-04-15T05:51:09.475Z,94.11
2023-04-15T05:53:35.992Z,94.32
2023-04-15T05:56:02.588Z,96.79
2023-04-15T05:58:29.055Z,97.84
2023-04-15T06:00:55.715Z,95.29
2023-04-15T06:03:23.161Z,94.68
2023-04-15T06:05:50.949Z,98.50
2023-04-15T06:08:17.925Z,97.90
2023-04-15T06:10:44.403Z,95.85
2023-04-15T06:13:10.928Z,96.38
2023-04-15T06:15:37.731Z,94.73
2023-04-15T06:18:04.314Z,97.04
2023-04-15T06:20:31.097Z,95.63
2023-04-15T06:22:57.641Z,94.67
2023-04-15T06:25:24.183Z,93.30
2023-04-15T06:27:50.779Z,93.75
2023-04-15T06:30:17.316Z,96.44
2023-04-15T06:32:43.897Z,96.63
2023-04-15T06:35:10.517Z,96.75
2023-04-15T06:37:37.008Z,97.27
2023-04-15T06:40:05.287Z,99.18
2023-04-15T06:42:32.492Z,99.26
2023-04-15T06:44:59.032Z,99.65
2023-04-15T06:47:25.651Z,97.57
2023-04-15T06:49:52.140Z,96.44
2023-04-15T06:52:18.611Z,98.20
2023-04-15T06:54:45.116Z,95.69
2023-04-15T06:57:11.603Z,97.74
2023-04-15T06:59:38.150Z,98.22
2023-04-15T07:02:04.972Z,95.91
2023-04-15T07:04:31.615Z,95.67
2023-04-15T07:06:58.117Z,94.36
2023-04-15T07:09:24.870Z,93.93
2023-04-15T07:11:51.551Z,95.37
2023-04-15T07:14:18.576Z,96.27
2023-04-15T07:16:45.202Z,94.98
2023-04-15T07:19:11.966Z,94.98
2023-04-15T07:21:40.055Z,95.94
2023-04-15T07:24:08.937Z,95.29
2023-04-15T07:26:35.622Z,93.61
2023-04-15T07:29:02.327Z,95.10
2023-04-15T07:31:29.051Z,95.35
2023-04-15T07:33:55.623Z,94.20
2023-04-15T07:36:22.202Z,92.67
2023-04-15T07:38:49.079Z,94.63
2023-04-15T07:41:15.926Z,94.01
2023-04-15T07:43:43.419Z,92.72
2023-04-15T07:46:09.913Z,93.42
2023-04-15T07:48:37.552Z,93.31
2023-04-15T07:51:04.401Z,94.39
2023-04-15T07:53:31.396Z,93.52
2023-04-15T07:55:58.338Z,91.73
2023-04-15T07:58:25.170Z,92.45
2023-04-15T08:00:51.711Z,93.72
2023-04-15T08:03:38.295Z,93.27
2023-04-15T08:06:05.090Z,91.88
2023-04-15T08:08:32.154Z,94.38
2023-04-15T08:10:59.039Z,93.58
2023-04-15T08:13:26.411Z,92.39
2023-04-15T08:16:19.809Z,92.59
2023-04-15T08:18:47.787Z,92.12
2023-04-15T08:21:14.305Z,91.44
2023-04-15T08:23:47.823Z,93.04
2023-04-15T08:26:14.413Z,91.79
2023-04-15T08:28:41.670Z,90.75
2023-04-15T08:31:08.737Z,91.11
2023-04-15T08:33:35.454Z,90.71
2023-04-15T08:36:01.923Z,91.41
2023-04-15T08:38:28.401Z,92.97
2023-04-15T08:40:56.517Z,93.02
2023-04-15T08:43:31.231Z,92.88
2023-04-15T08:46:00.236Z,90.48
2023-04-15T08:48:28.902Z,89.89
2023-04-15T08:50:55.424Z,88.56
2023-04-15T08:53:22.031Z,88.90
2023-04-15T08:55:52.030Z,89.97
2023-04-15T08:58:19.885Z,89.84
2023-04-15T09:00:46.668Z,89.03
2023-04-15T09:03:23.245Z,89.14
2023-04-15T09:05:52.716Z,87.90
2023-04-15T09:08:19.845Z,86.40
2023-04-15T09:10:46.469Z,87.04
2023-04-15T09:13:13.770Z,86.21
2023-04-15T09:15:40.353Z,85.20
2023-04-15T09:18:07.171Z,85.18
2023-04-15T09:20:43.035Z,85.85
2023-04-15T09:23:17.520Z,86.29
2023-04-15T09:25:44.062Z,86.28
2023-04-15T09:28:11.272Z,85.21
2023-04-15T09:30:37.844Z,84.17
2023-04-15T09:33:08.308Z,83.62
2023-04-15T09:35:38.323Z,84.10
2023-04-15T09:38:09.832Z,83.07
2023-04-15T09:40:36.498Z,82.02
2023-04-15T09:43:07.567Z,81.86
2023-04-15T09:45:35.820Z,81.63
2023-04-15T09:48:27.318Z,81.37
2023-04-15T09:50:54.144Z,79.81
2023-04-15T09:53:22.133Z,82.32
2023-04-15T09:55:57.177Z,83.20
2023-04-15T09:58:31.388Z,82.83
2023-04-15T10:00:59.005Z,82.20
2023-04-15T10:03:27.714Z,81.08
2023-04-15T10:05:56.745Z,77.37
2023-04-15T10:08:25.275Z,76.35
2023-04-15T10:10:52.480Z,76.36
2023-04-15T10:13:20.782Z,77.10
2023-04-15T10:15:52.004Z,78.33
2023-04-15T10:18:21.747Z,77.99
2023-04-15T10:20:48.582Z,77.65
2023-04-15T10:23:15.665Z,77.84
2023-04-15T10:25:42.151Z,78.81
2023-04-15T10:28:09.053Z,79.40
2023-04-15T10:30:36.788Z,79.48
2023-04-15T10:33:04.411Z,79.27
2023-04-15T10:35:32.841Z,77.01
2023-04-15T10:37:59.801Z,77.24
2023-04-15T10:40:28.296Z,76.88
2023-04-15T10:42:56.495Z,76.50
2023-04-15T10:45:27.318Z,75.84
2023-04-15T10:47:58.084Z,75.82
2023-04-15T10:50:29.859Z,75.56
2023-04-15T10:52:57.056Z,76.61
2023-04-15T10:55:25.543Z,73.53
2023-04-15T10:57:58.525Z,72.14
2023-04-15T11:00:26.753Z,71.36
2023-04-15T11:02:56.525Z,69.54
2023-04-15T11:05:44.162Z,70.80
2023-04-15T11:08:11.251Z,70.94
2023-04-15T11:10:37.679Z,71.12
2023-04-15T11:13:06.035Z,72.87
2023-04-15T11:15:33.785Z,71.56
2023-04-15T11:18:00.242Z,70.26
2023-04-15T11:20:27.331Z,72.86
2023-04-15T11:23:08.261Z,71.76
2023-04-15T11:25:43.644Z,70.55
2023-04-15T11:28:11.514Z,73.56
2023-04-15T11:30:38.846Z,73.07
2023-04-15T11:33:10.097Z,70.89
2023-04-15T11:35:36.681Z,70.69
2023-04-15T11:38:10.069Z,69.82
2023-04-15T11:40:37.893Z,70.43
2023-04-15T11:43:10.809Z,69.94
2023-04-15T11:45:39.222Z,69.67
2023-04-15T11:48:10.603Z,69.33
2023-04-15T11:50:38.053Z,68.82
2023-04-15T11:53:08.329Z,70.31
2023-04-15T11:56:01.935Z,69.87
2023-04-15T11:58:30.581Z,67.72
2023-04-15T12:00:58.877Z,67.16
2023-04-15T12:03:27.557Z,67.24
2023-04-15T12:06:23.530Z,66.48
2023-04-15T12:09:09.289Z,66.94
2023-04-15T12:11:38.678Z,66.39
2023-04-15T12:14:31.207Z,65.70
2023-04-15T12:17:00.405Z,65.08
2023-04-15T12:19:35.736Z,63.78
2023-04-15T12:22:04.220Z,63.94
2023-04-15T12:24:35.920Z,65.74
2023-04-15T12:27:07.226Z,65.87
2023-04-15T12:29:34.902Z,66.52
2023-04-15T12:32:15.161Z,64.96
2023-04-15T12:34:45.716Z,65.79
2023-04-15T12:37:14.309Z,64.73
2023-04-15T12:39:42.926Z,65.17
2023-04-15T12:42:10.011Z,66.78
2023-04-15T12:44:37.436Z,66.18
2023-04-15T12:47:04.289Z,66.49
2023-04-15T12:49:31.158Z,65.94
2023-04-15T12:52:02.197Z,67.39
2023-04-15T12:54:30.236Z,66.28
2023-04-15T12:56:57.505Z,65.32
2023-04-15T12:59:24.405Z,62.66
2023-04-15T13:01:52.211Z,63.11
2023-04-15T13:04:20.271Z,63.56
2023-04-15T13:06:46.796Z,64.22
2023-04-15T13:09:13.307Z,65.75
2023-04-15T13:11:39.781Z,66.49
2023-04-15T13:14:08.738Z,65.13
2023-04-15T13:16:35.944Z,65.63
2023-04-15T13:19:03.649Z,66.37
2023-04-15T13:21:32.257Z,66.95
2023-04-15T13:23:58.746Z,66.52
2023-04-15T13:26:25.183Z,65.21
2023-04-15T13:28:51.659Z,65.52
2023-04-15T13:31:18.097Z,65.35
2023-04-15T13:33:44.739Z,63.64
2023-04-15T13:36:11.652Z,62.96
2023-04-15T13:38:38.148Z,63.03
2023-04-15T13:41:04.774Z,64.48
2023-04-15T13:43:33.685Z,62.96
2023-04-15T13:46:00.344Z,65.72
2023-04-15T13:48:26.910Z,67.33
2023-04-15T13:50:53.360Z,68.90
2023-04-15T13:53:19.838Z,68.30
2023-04-15T13:55:46.345Z,67.33
2023-04-15T13:58:13.005Z,66.92
2023-04-15T14:00:39.467Z,66.71
2023-04-15T14:03:06.068Z,65.79
2023-04-15T14:05:32.782Z,66.18
2023-04-15T14:08:00.119Z,64.36
2023-04-15T14:10:26.573Z,66.47
2023-04-15T14:12:53.140Z,67.64
2023-04-15T14:15:19.646Z,68.25
2023-04-15T14:17:46.173Z,67.83
2023-04-15T14:20:15.012Z,68.27
2023-04-15T14:22:43.044Z,67.28
2023-04-15T14:25:10.547Z,64.67
2023-04-15T14:27:39.844Z,65.66
2023-04-15T14:30:08.067Z,65.90
2023-04-15T14:32:34.558Z,65.59
2023-04-15T14:35:01.009Z,67.66
2023-04-15T14:37:27.562Z,68.00
2023-04-15T14:39:54.022Z,69.48
2023-04-15T14:42:21.640Z,68.97
2023-04-15T14:44:48.232Z,70.34
2023-04-15T14:47:14.742Z,70.67
2023-04-15T14:49:41.260Z,70.68
2023-04-15T14:52:07.759Z,72.25
2023-04-15T14:54:34.241Z,72.03
2023-04-15T14:57:01.994Z,71.89
2023-04-15T14:59:28.482Z,72.35
2023-04-15T15:01:55.026Z,71.29
2023-04-15T15:04:23.780Z,71.34
2023-04-15T15:06:50.871Z,70.54
2023-04-15T15:09:19.695Z,71.89
2023-04-15T15:11:46.173Z,71.51
2023-04-15T15:14:12.814Z,71.71
2023-04-15T15:16:39.256Z,71.56
2023-04-15T15:19:05.910Z,72.19
2023-04-15T15:21:32.555Z,72.31
2023-04-15T15:23:59.014Z,73.35
2023-04-15T15:26:25.605Z,73.23
2023-04-15T15:28:52.121Z,72.65
2023-04-15T15:31:18.700Z,72.30
2023-04-15T15:33:45.311Z,72.69
2023-04-15T15:36:11.923Z,72.15
2023-04-15T15:38:40.668Z,72.26
2023-04-15T15:41:07.087Z,72.15
2023-04-15T15:43:33.543Z,72.54
2023-04-15T15:46:01.147Z,72.76
2023-04-15T15:48:27.710Z,72.48
2023-04-15T15:50:54.175Z,72.66
2023-04-15T15:53:21.277Z,72.34
2023-04-15T15:55:48.383Z,71.45
2023-04-15T15:58:15.192Z,72.19
2023-04-15T16:00:41.848Z,71.89
2023-04-15T16:03:08.777Z,72.53
2023-04-15T16:05:36.081Z,71.67
2023-04-15T16:08:02.734Z,71.71
2023-04-15T16:10:29.302Z,72.40
2023-04-15T16:12:56.016Z,72.48
2023-04-15T16:15:23.967Z,72.43
2023-04-15T16:17:50.563Z,73.26
2023-04-15T16:20:17.261Z,73.03
2023-04-15T16:22:43.897Z,72.53
2023-04-15T16:25:10.645Z,73.18
2023-04-15T16:27:54.187Z,72.33
2023-04-15T16:30:24.111Z,71.34
2023-04-15T16:32:50.663Z,72.50
2023-04-15T16:35:17.245Z,72.41
2023-04-15T16:37:43.806Z,72.48
2023-04-15T16:40:10.702Z,73.51
2023-04-15T16:42:37.132Z,73.36
2023-04-15T16:45:03.893Z,74.05
2023-04-15T16:47:30.511Z,74.26
2023-04-15T16:49:58.004Z,74.49
2023-04-15T16:52:24.496Z,72.90
2023-04-15T16:54:51.016Z,73.94
2023-04-15T16:57:17.555Z,74.22
2023-04-15T16:59:44.713Z,74.70
2023-04-15T17:02:14.817Z,74.05
2023-04-15T17:04:42.382Z,73.64
2023-04-15T17:07:10.818Z,72.94
2023-04-15T17:09:39.245Z,72.90
2023-04-15T17:12:06.219Z,74.02
2023-04-15T17:14:33.376Z,74.25
2023-04-15T17:16:59.825Z,73.87
2023-04-15T17:29:56.262Z,75.57
2023-04-15T17:32:23.228Z,74.56
2023-04-15T17:34:51.354Z,74.66
2023-04-15T17:37:18.184Z,75.01
2023-04-15T17:39:44.824Z,75.26
2023-04-15T17:42:11.780Z,75.53
2023-04-15T17:44:38.302Z,74.71
2023-04-15T17:47:04.842Z,75.28
2023-04-15T17:49:31.501Z,75.21
2023-04-15T17:51:57.983Z,74.83
2023-04-15T17:54:24.442Z,74.13
2023-04-15T17:56:51.704Z,73.96
2023-04-15T17:59:18.391Z,75.09
2023-04-15T18:01:45.625Z,75.03
2023-04-15T18:04:12.598Z,75.44
2023-04-15T18:06:39.370Z,74.72
2023-04-15T18:09:06.731Z,76.15
2023-04-15T18:11:33.520Z,76.46
2023-04-15T18:14:02.155Z,76.52
2023-04-15T18:16:28.640Z,76.98
2023-04-15T18:18:55.173Z,76.00
2023-04-15T18:21:21.604Z,76.41
2023-04-15T18:23:48.051Z,75.84
2023-04-15T18:26:14.516Z,76.00
2023-04-15T18:28:41.167Z,75.33
2023-04-15T18:31:07.764Z,75.83
2023-04-15T18:33:35.769Z,76.37
2023-04-15T18:36:02.685Z,76.96
2023-04-15T18:38:29.257Z,76.91
2023-04-15T18:40:55.711Z,75.89
2023-04-15T18:43:22.156Z,76.61
2023-04-15T18:45:48.939Z,75.60
2023-04-15T18:48:16.014Z,75.39
2023-04-15T18:50:43.081Z,74.89
2023-04-15T18:53:09.616Z,75.51
2023-04-15T18:55:36.501Z,75.46
2023-04-15T18:58:08.585Z,75.07
2023-04-15T19:00:39.034Z,75.17
2023-04-15T19:03:06.422Z,74.81
2023-04-15T19:05:33.456Z,75.83
2023-04-15T19:07:59.951Z,75.04
2023-04-15T19:10:28.127Z,75.70
2023-04-15T19:12:55.503Z,76.36
2023-04-15T19:15:22.133Z,75.50
2023-04-15T19:17:48.678Z,75.50
2023-04-15T19:20:15.304Z,76.75
2023-04-15T19:22:43.115Z,77.19
2023-04-15T19:25:09.976Z,76.74
2023-04-15T19:27:38.155Z,75.29
2023-04-15T19:30:06.468Z,77.75
2023-04-15T19:32:33.007Z,76.30
2023-04-15T19:34:59.562Z,76.95
2023-04-15T19:37:26.097Z,77.13
2023-04-15T19:39:54.110Z,77.56
2023-04-15T19:42:20.651Z,77.47
2023-04-15T19:44:47.160Z,78.00
2023-04-15T19:47:13.675Z,75.62
2023-04-15T19:49:40.516Z,76.90
2023-04-15T19:52:07.109Z,77.46
2023-04-15T19:54:33.733Z,77.16
2023-04-15T19:57:01.516Z,77.93
2023-04-15T19:59:27.986Z,76.28
2023-04-15T20:01:54.513Z,77.19
2023-04-15T20:04:21.470Z,78.59
2023-04-15T20:06:48.458Z,78.12
2023-04-15T20:09:14.965Z,77.36
2023-04-15T20:12:46.927Z,78.88
2023-04-15T20:14:27.956Z,78.94
2023-04-15T20:16:54.412Z,78.66
2023-04-15T20:19:20.961Z,78.09
2023-04-15T20:21:47.535Z,78.86
2023-04-15T20:24:14.094Z,78.39
2023-04-15T20:26:40.923Z,76.88
2023-04-15T20:29:07.934Z,77.46
2023-04-15T20:31:35.169Z,78.00
2023-04-15T20:34:01.793Z,78.27
2023-04-15T20:36:28.353Z,77.11
2023-04-15T20:38:54.779Z,78.04
2023-04-15T20:41:22.145Z,77.71
2023-04-15T20:43:48.882Z,77.54
2023-04-15T20:46:21.180Z,78.36
2023-04-15T20:48:49.307Z,78.34
2023-04-15T20:51:15.885Z,78.72
2023-04-15T20:53:42.631Z,78.58
2023-04-15T20:56:09.193Z,78.50
2023-04-15T20:58:36.207Z,79.33
2023-04-15T21:01:02.757Z,77.96
2023-04-15T21:03:29.416Z,79.12
2023-04-15T21:05:56.115Z,79.66
2023-04-15T21:08:29.173Z,79.80
2023-04-15T21:10:56.824Z,79.30
2023-04-15T21:13:23.788Z,79.90
2023-04-15T21:15:53.385Z,79.89
2023-04-15T21:18:21.400Z,79.48
2023-04-15T21:20:56.622Z,78.22
2023-04-15T21:23:23.214Z,79.90
2023-04-15T21:25:49.910Z,79.19
2023-04-15T21:28:16.433Z,79.14
2023-04-15T21:30:43.000Z,79.34
2023-04-15T21:33:09.877Z,81.05
2023-04-15T21:35:36.380Z,79.80
2023-04-15T21:38:03.121Z,79.20
2023-04-15T21:40:30.030Z,80.87
2023-04-15T21:42:56.470Z,79.78
2023-04-15T21:45:23.398Z,80.27
2023-04-15T21:48:06.218Z,78.63
2023-04-15T21:50:38.316Z,78.46
2023-04-15T21:53:06.690Z,78.21
2023-04-15T21:55:33.220Z,80.17
2023-04-15T21:57:59.717Z,79.25
2023-04-15T22:00:26.218Z,79.41
2023-04-15T22:02:52.849Z,78.21
2023-04-15T22:05:19.426Z,78.47
2023-04-15T22:07:45.921Z,79.41
2023-04-15T22:10:12.453Z,77.87
2023-04-15T22:12:41.914Z,78.74
2023-04-15T22:15:08.833Z,78.95
2023-04-15T22:17:35.480Z,79.82
2023-04-15T22:20:02.235Z,78.28
2023-04-15T22:22:43.416Z,79.14
2023-04-15T22:25:11.107Z,79.74
2023-04-15T22:27:37.598Z,79.20
2023-04-15T22:30:04.835Z,79.07
2023-04-15T22:32:31.352Z,78.08
2023-04-15T22:34:57.834Z,80.84
2023-04-15T22:37:24.331Z,79.68
2023-04-15T22:39:52.039Z,79.95
2023-04-15T22:42:18.544Z,79.32
2023-04-15T22:44:45.005Z,80.03
2023-04-15T22:47:11.495Z,80.07
2023-04-15T22:49:37.953Z,78.95
2023-04-15T22:52:04.595Z,79.11
2023-04-15T22:54:31.255Z,81.00
2023-04-15T22:56:58.052Z,80.29
2023-04-15T22:59:24.615Z,79.99
2023-04-15T23:01:51.487Z,79.11
2023-04-15T23:04:27.240Z,80.50
2023-04-15T23:06:54.555Z,80.51
2023-04-15T23:09:21.503Z,81.20
2023-04-15T23:11:48.059Z,80.63
2023-04-15T23:14:14.492Z,80.59
2023-04-15T23:16:41.251Z,79.69
2023-04-15T23:19:08.255Z,79.86
2023-04-15T23:21:35.067Z,79.85
2023-04-15T23:24:01.514Z,81.02
2023-04-15T23:26:28.189Z,81.75
2023-04-15T23:28:54.742Z,80.75
2023-04-15T23:31:21.265Z,79.72
2023-04-15T23:33:47.788Z,79.73
2023-04-15T23:36:14.286Z,80.42
2023-04-15T23:38:40.792Z,81.00
2023-04-15T23:41:07.295Z,80.44
2023-04-15T23:43:33.732Z,79.67
2023-04-15T23:46:00.279Z,80.20
2023-04-15T23:48:26.877Z,79.43
2023-04-15T23:50:53.385Z,80.22
2023-04-15T23:53:19.845Z,80.88
2023-04-15T23:55:46.682Z,79.83
2023-04-15T23:58:13.152Z,79.82
